Deora, Colorado
Current Conditions -  °F | °C
As of 9:53 PM on Sunday 21 Dec 2014 (Local Time) from KLHX Reporting Station
Broken Clouds Broken Clouds  
Wind Chill: 40°   Ceiling: 9000
Heat Index: 40°   Visibility: 10mi
Dew Point: 31°   Wind: 3mph
Humidity: 70%   Direction: 310°NW
Pressure: 29.62"   Gusts: NA
Location:  37.8567°N, 103.111°W
Report Text: KLHX 220453Z AUTO 31003KT 10SM FEW070 BKN090 BKN120 04/M01 A2962 RMK AO2 SLP025 T00441006
Loading
Personal Weather Stations






























Interactive Weather Map New forecast layout! Learn more

10-Day Weather Forecast

Advertisements
Track Severe Weather on mobile